createdAt,value
2017-10-06T00:02:10.287Z,62.30
2017-10-06T00:04:42.575Z,62.00
2017-10-06T00:07:10.026Z,62.10
2017-10-06T00:09:37.489Z,62.10
2017-10-06T00:12:04.974Z,62.00
2017-10-06T00:14:32.433Z,61.80
2017-10-06T00:16:59.901Z,61.90
2017-10-06T00:19:27.403Z,61.80
2017-10-06T00:21:54.866Z,61.80
2017-10-06T00:24:22.333Z,61.90
2017-10-06T00:26:49.814Z,62.00
2017-10-06T00:29:17.274Z,62.20
2017-10-06T00:31:44.735Z,62.20
2017-10-06T00:34:12.219Z,62.10
2017-10-06T00:36:40.956Z,62.70
2017-10-06T00:39:08.434Z,62.10
2017-10-06T00:41:36.654Z,61.80
2017-10-06T00:44:04.142Z,61.80
2017-10-06T00:46:31.603Z,61.60
2017-10-06T00:48:59.067Z,61.60
2017-10-06T00:51:26.554Z,61.60
2017-10-06T00:53:54.010Z,61.40
2017-10-06T00:56:21.491Z,61.40
2017-10-06T00:58:48.973Z,61.60
2017-10-06T01:01:16.444Z,61.70
2017-10-06T01:03:43.921Z,61.50
2017-10-06T01:06:11.386Z,61.30
2017-10-06T01:08:38.871Z,61.40
2017-10-06T01:11:06.323Z,61.40
2017-10-06T01:13:33.797Z,61.50
2017-10-06T01:16:02.038Z,61.70
2017-10-06T01:18:29.498Z,61.70
2017-10-06T01:20:57.007Z,61.60
2017-10-06T01:23:24.462Z,61.40
2017-10-06T01:25:51.918Z,61.40
2017-10-06T01:28:19.403Z,61.70
2017-10-06T01:30:46.897Z,61.80
2017-10-06T01:33:14.423Z,61.90
2017-10-06T01:35:41.976Z,62.10
2017-10-06T01:38:09.546Z,62.30
2017-10-06T01:40:37.035Z,62.30
2017-10-06T01:43:04.494Z,62.20
2017-10-06T01:45:31.946Z,62.10
2017-10-06T01:47:59.434Z,62.00
2017-10-06T01:50:26.899Z,62.10
2017-10-06T01:52:54.375Z,62.30
2017-10-06T01:55:21.830Z,62.50
2017-10-06T01:57:49.784Z,62.50
2017-10-06T02:00:18.326Z,62.40
2017-10-06T02:02:45.778Z,62.30
2017-10-06T02:05:13.271Z,62.40
2017-10-06T02:07:40.737Z,62.40
2017-10-06T02:10:08.189Z,62.30
2017-10-06T02:12:35.667Z,62.30
2017-10-06T02:15:03.126Z,62.20
2017-10-06T02:17:30.606Z,62.10
2017-10-06T02:19:58.150Z,62.00
2017-10-06T02:22:25.646Z,62.00
2017-10-06T02:24:53.120Z,62.00
2017-10-06T02:27:20.574Z,62.10
2017-10-06T02:29:48.061Z,62.10
2017-10-06T02:32:15.542Z,62.10
2017-10-06T02:34:42.994Z,61.90
2017-10-06T02:37:11.246Z,61.80
2017-10-06T02:39:38.702Z,61.80
2017-10-06T02:42:06.185Z,61.80
2017-10-06T02:44:34.414Z,61.90
2017-10-06T02:47:01.876Z,61.90
2017-10-06T02:49:29.382Z,62.10
2017-10-06T02:51:56.842Z,62.10
2017-10-06T02:54:24.318Z,62.00
2017-10-06T02:56:51.786Z,62.90
2017-10-06T02:59:19.239Z,62.20
2017-10-06T03:01:46.742Z,62.00
2017-10-06T03:04:14.218Z,62.20
2017-10-06T03:06:41.675Z,62.30
2017-10-06T03:09:09.150Z,62.50
2017-10-06T03:11:36.634Z,62.50
2017-10-06T03:14:04.091Z,62.80
2017-10-06T03:16:31.574Z,62.90
2017-10-06T03:18:59.063Z,62.90
2017-10-06T03:21:27.319Z,63.50
2017-10-06T03:23:54.781Z,63.10
2017-10-06T03:26:22.235Z,63.30
2017-10-06T03:28:49.714Z,63.40
2017-10-06T03:31:17.954Z,63.60
2017-10-06T03:33:45.455Z,63.60
2017-10-06T03:36:13.623Z,63.70
2017-10-06T03:38:41.087Z,63.90
2017-10-06T03:41:08.577Z,64.00
2017-10-06T03:43:36.042Z,64.00
2017-10-06T03:46:03.510Z,64.20
2017-10-06T03:48:31.039Z,64.50
2017-10-06T03:50:58.490Z,64.60
2017-10-06T03:53:25.981Z,64.60
2017-10-06T03:55:53.458Z,64.70
2017-10-06T03:58:20.914Z,64.60
2017-10-06T04:00:48.393Z,64.60
2017-10-06T04:03:15.858Z,64.60
2017-10-06T04:05:44.163Z,64.60
2017-10-06T04:08:11.679Z,64.70
2017-10-06T04:10:39.171Z,64.90
2017-10-06T04:13:07.398Z,65.10
2017-10-06T04:15:34.900Z,65.10
2017-10-06T04:18:03.139Z,65.40
2017-10-06T04:20:30.594Z,65.40
2017-10-06T04:22:58.069Z,65.40
2017-10-06T04:25:25.567Z,65.60
2017-10-06T04:27:53.031Z,65.60
2017-10-06T04:30:20.482Z,65.70
2017-10-06T04:32:47.998Z,65.60
2017-10-06T04:35:15.482Z,65.70
2017-10-06T04:37:42.977Z,65.90
2017-10-06T04:40:10.498Z,65.90
2017-10-06T04:42:38.727Z,66.00
2017-10-06T04:45:06.211Z,66.00
2017-10-06T04:47:33.690Z,65.90
2017-10-06T04:50:01.170Z,65.90
2017-10-06T04:52:28.655Z,66.00
2017-10-06T04:54:56.946Z,66.30
2017-10-06T04:57:24.425Z,66.10
2017-10-06T04:59:51.911Z,66.20
2017-10-06T05:02:19.368Z,66.10
2017-10-06T05:04:46.823Z,66.40
2017-10-06T05:07:14.298Z,66.50
2017-10-06T05:09:41.839Z,66.60
2017-10-06T05:12:10.085Z,66.90
2017-10-06T05:14:37.567Z,66.90
2017-10-06T05:17:05.790Z,67.60
2017-10-06T05:19:33.270Z,67.00
2017-10-06T05:22:00.734Z,67.10
2017-10-06T05:24:28.233Z,67.10
2017-10-06T05:26:56.453Z,67.30
2017-10-06T05:29:23.939Z,67.30
2017-10-06T05:31:51.434Z,67.20
2017-10-06T05:34:18.898Z,67.50
2017-10-06T05:36:46.394Z,67.40
2017-10-06T05:39:13.851Z,67.20
2017-10-06T05:41:41.323Z,67.10
2017-10-06T05:44:08.811Z,67.00
2017-10-06T05:46:36.274Z,67.00
2017-10-06T05:49:03.731Z,66.90
2017-10-06T05:51:31.226Z,66.80
2017-10-06T05:53:58.677Z,66.90
2017-10-06T05:56:26.166Z,66.80
2017-10-06T05:58:53.669Z,66.90
2017-10-06T06:01:21.127Z,66.80
2017-10-06T06:03:48.615Z,66.80
2017-10-06T06:06:16.658Z,66.70
2017-10-06T06:08:44.123Z,66.80
2017-10-06T06:11:12.082Z,66.80
2017-10-06T06:13:39.588Z,66.70
2017-10-06T06:16:07.041Z,66.60
2017-10-06T06:18:34.587Z,66.50
2017-10-06T06:21:02.298Z,66.40
2017-10-06T06:23:29.837Z,66.40
2017-10-06T06:25:57.355Z,66.30
2017-10-06T06:28:24.843Z,66.40
2017-10-06T06:30:52.301Z,66.50
2017-10-06T06:33:19.785Z,66.50
2017-10-06T06:35:47.264Z,66.30
2017-10-06T06:38:14.758Z,66.30
2017-10-06T06:40:42.239Z,65.90
2017-10-06T06:43:09.738Z,65.80
2017-10-06T06:45:37.970Z,65.60
2017-10-06T06:48:05.433Z,65.60
2017-10-06T06:50:32.915Z,65.70
2017-10-06T06:53:00.378Z,65.60
2017-10-06T06:55:27.870Z,65.40
2017-10-06T06:57:56.134Z,65.00
2017-10-06T07:00:24.409Z,65.00
2017-10-06T07:02:52.634Z,64.80
2017-10-06T07:05:20.118Z,64.70
2017-10-06T07:07:47.803Z,64.70
2017-10-06T07:10:16.063Z,64.40
2017-10-06T07:12:43.530Z,64.30
2017-10-06T07:15:11.774Z,63.40
2017-10-06T07:17:39.257Z,63.40
2017-10-06T07:20:06.726Z,63.10
2017-10-06T07:22:34.959Z,62.80
2017-10-06T07:25:03.214Z,62.70
2017-10-06T07:27:30.697Z,62.70
2017-10-06T07:29:58.218Z,62.80
2017-10-06T07:32:25.703Z,62.50
2017-10-06T07:34:53.163Z,62.40
2017-10-06T07:37:20.705Z,62.60
2017-10-06T07:39:48.557Z,63.10
2017-10-06T07:42:16.014Z,63.40
2017-10-06T07:44:43.511Z,63.50
2017-10-06T07:47:11.002Z,63.80
2017-10-06T07:49:38.494Z,63.70
2017-10-06T07:52:05.956Z,63.70
2017-10-06T07:54:33.411Z,63.90
2017-10-06T07:57:00.911Z,64.10
2017-10-06T07:59:28.366Z,64.50
2017-10-06T08:01:55.829Z,64.80
2017-10-06T08:04:23.311Z,65.10
2017-10-06T08:06:50.767Z,65.20
2017-10-06T08:09:19.185Z,65.50
2017-10-06T08:11:46.654Z,65.50
2017-10-06T08:14:14.112Z,65.40
2017-10-06T08:16:41.590Z,65.40
2017-10-06T08:19:09.046Z,65.50
2017-10-06T08:21:36.543Z,65.70
2017-10-06T08:24:03.998Z,65.80
2017-10-06T08:26:31.462Z,65.60
2017-10-06T08:28:59.070Z,65.70
2017-10-06T08:31:26.538Z,65.10
2017-10-06T08:33:54.024Z,65.50
2017-10-06T08:36:21.484Z,65.60
2017-10-06T08:38:50.646Z,65.90
2017-10-06T08:41:18.102Z,65.90
2017-10-06T08:43:45.586Z,65.70
2017-10-06T08:46:13.082Z,65.30
2017-10-06T08:48:41.306Z,64.90
2017-10-06T08:51:08.779Z,64.90
2017-10-06T08:53:36.287Z,64.80
2017-10-06T08:56:03.771Z,64.80
2017-10-06T08:58:31.234Z,64.70
2017-10-06T09:00:58.731Z,64.70
2017-10-06T09:03:26.188Z,64.50
2017-10-06T09:05:53.648Z,64.70
2017-10-06T09:08:21.139Z,64.90
2017-10-06T09:10:48.600Z,65.30
2017-10-06T09:13:16.054Z,65.20
2017-10-06T09:15:43.553Z,65.10
2017-10-06T09:18:11.006Z,64.50
2017-10-06T09:20:38.506Z,63.90
2017-10-06T09:23:06.756Z,64.20
2017-10-06T09:25:34.215Z,64.10
2017-10-06T09:28:01.698Z,64.30
2017-10-06T09:30:29.922Z,64.80
2017-10-06T09:32:57.396Z,64.90
2017-10-06T09:35:24.886Z,65.10
2017-10-06T09:37:53.122Z,65.30
2017-10-06T09:40:22.034Z,66.10
2017-10-06T09:42:49.490Z,65.60
2017-10-06T09:45:16.956Z,65.70
2017-10-06T09:47:44.434Z,66.00
2017-10-06T09:50:12.730Z,66.30
2017-10-06T09:52:40.218Z,66.30
2017-10-06T09:55:07.699Z,66.20
2017-10-06T09:57:35.194Z,66.20
2017-10-06T10:00:02.655Z,66.50
2017-10-06T10:02:30.114Z,66.60
2017-10-06T10:04:57.602Z,66.70
2017-10-06T10:07:25.091Z,66.80
2017-10-06T10:09:52.546Z,66.90
2017-10-06T10:12:20.014Z,67.10
2017-10-06T10:14:47.492Z,67.00
2017-10-06T10:17:15.743Z,65.60
2017-10-06T10:19:43.264Z,65.50
2017-10-06T10:22:10.727Z,65.30
2017-10-06T10:24:38.191Z,65.10
2017-10-06T10:27:05.680Z,64.90
2017-10-06T10:29:33.143Z,65.00
2017-10-06T10:32:00.603Z,65.40
2017-10-06T10:34:28.100Z,65.80
2017-10-06T10:36:55.568Z,66.00
2017-10-06T10:39:23.036Z,66.00
2017-10-06T10:41:50.533Z,66.00
2017-10-06T10:44:17.998Z,66.30
2017-10-06T10:46:45.462Z,66.00
2017-10-06T10:49:12.966Z,65.80
2017-10-06T10:51:40.439Z,65.70
2017-10-06T10:54:07.894Z,65.40
2017-10-06T10:56:35.410Z,64.60
2017-10-06T10:59:02.896Z,62.60
2017-10-06T11:01:30.386Z,62.40
2017-10-06T11:03:57.846Z,61.90
2017-10-06T11:06:25.329Z,61.70
2017-10-06T11:08:52.947Z,61.50
2017-10-06T11:11:20.415Z,61.80
2017-10-06T11:13:47.914Z,61.50
2017-10-06T11:16:16.150Z,62.00
2017-10-06T11:18:43.695Z,61.90
2017-10-06T11:21:11.175Z,61.90
2017-10-06T11:23:38.631Z,61.80
2017-10-06T11:26:06.110Z,61.80
2017-10-06T11:28:33.582Z,61.60
2017-10-06T11:31:01.830Z,60.80
2017-10-06T11:33:29.314Z,60.80
2017-10-06T11:35:56.778Z,60.00
2017-10-06T11:38:24.258Z,59.80
2017-10-06T11:40:51.723Z,60.20
2017-10-06T11:43:19.274Z,60.50
2017-10-06T11:45:46.755Z,60.00
2017-10-06T11:48:14.234Z,60.00
2017-10-06T11:50:41.730Z,58.90
2017-10-06T11:53:09.965Z,58.50
2017-10-06T11:55:37.462Z,58.50
2017-10-06T11:58:04.931Z,58.80
2017-10-06T12:00:33.162Z,58.20
2017-10-06T12:03:00.642Z,58.20
2017-10-06T12:05:28.106Z,58.20
2017-10-06T12:07:55.594Z,58.50
2017-10-06T12:10:24.770Z,57.30
2017-10-06T12:12:53.946Z,56.80
2017-10-06T12:15:21.441Z,56.80
2017-10-06T12:17:48.902Z,56.50
2017-10-06T12:20:16.406Z,56.40
2017-10-06T12:22:43.866Z,55.70
2017-10-06T12:25:11.326Z,55.70
2017-10-06T12:27:38.806Z,55.60
2017-10-06T12:30:06.291Z,55.60
2017-10-06T12:32:33.766Z,55.30
2017-10-06T12:35:01.259Z,55.50
2017-10-06T12:37:28.723Z,55.00
2017-10-06T12:39:56.208Z,55.20
2017-10-06T12:42:24.491Z,55.10
2017-10-06T12:44:51.994Z,54.60
2017-10-06T12:47:19.490Z,53.70
2017-10-06T12:49:46.958Z,53.80
2017-10-06T12:52:14.503Z,54.20
2017-10-06T12:54:41.962Z,53.80
2017-10-06T12:57:09.446Z,53.10
2017-10-06T12:59:36.920Z,53.10
2017-10-06T13:02:04.378Z,52.60
2017-10-06T13:04:31.872Z,53.20
2017-10-06T13:06:59.350Z,52.40
2017-10-06T13:09:26.870Z,52.60
2017-10-06T13:11:55.672Z,53.60
2017-10-06T13:14:23.134Z,53.20
2017-10-06T13:16:50.610Z,52.10
2017-10-06T13:19:18.083Z,52.20
2017-10-06T13:21:45.558Z,52.00
2017-10-06T13:24:13.799Z,53.10
2017-10-06T13:26:41.257Z,53.10
2017-10-06T13:29:08.758Z,53.40
2017-10-06T13:31:36.978Z,54.10
2017-10-06T13:34:04.434Z,54.10
2017-10-06T13:36:32.682Z,54.70
2017-10-06T13:39:00.242Z,54.70
2017-10-06T13:41:27.723Z,54.20
2017-10-06T13:43:56.131Z,54.50
2017-10-06T13:46:23.594Z,54.10
2017-10-06T13:48:51.092Z,54.40
2017-10-06T13:51:18.557Z,55.20
2017-10-06T13:53:46.035Z,52.00
2017-10-06T13:56:13.529Z,47.60
2017-10-06T13:58:41.014Z,42.10
2017-10-06T14:01:08.482Z,40.30
2017-10-06T14:03:35.982Z,39.90
2017-10-06T14:06:04.208Z,41.30
2017-10-06T14:08:31.775Z,41.20
2017-10-06T14:10:59.262Z,43.40
2017-10-06T14:13:26.733Z,41.20
2017-10-06T14:15:54.226Z,39.20
2017-10-06T14:18:21.694Z,37.20
2017-10-06T14:20:49.237Z,35.70
2017-10-06T14:23:16.698Z,34.00
2017-10-06T14:25:44.155Z,31.90
2017-10-06T14:28:11.659Z,31.20
2017-10-06T14:30:39.122Z,31.00
2017-10-06T14:33:06.587Z,32.40
2017-10-06T14:35:34.075Z,32.30
2017-10-06T14:38:01.547Z,33.30
2017-10-06T14:40:29.046Z,34.70
2017-10-06T14:42:56.503Z,32.90
2017-10-06T14:45:23.966Z,32.00
2017-10-06T14:47:51.467Z,31.50
2017-10-06T14:50:18.922Z,31.20
2017-10-06T14:52:46.387Z,30.30
2017-10-06T14:55:13.910Z,28.70
2017-10-06T14:57:41.382Z,28.60
2017-10-06T15:00:08.874Z,28.40
2017-10-06T15:02:37.139Z,27.90
2017-10-06T15:05:04.626Z,27.90
2017-10-06T15:07:32.114Z,27.20
2017-10-06T15:09:59.606Z,27.90
2017-10-06T15:12:27.865Z,27.80
2017-10-06T15:14:55.313Z,27.70
2017-10-06T15:17:22.798Z,29.20
2017-10-06T15:19:50.278Z,29.90
2017-10-06T15:22:18.530Z,31.30
2017-10-06T15:24:46.014Z,31.10
2017-10-06T15:27:13.467Z,32.80
2017-10-06T15:29:40.962Z,34.40
2017-10-06T15:32:08.434Z,35.50
2017-10-06T15:34:35.918Z,35.50
2017-10-06T15:37:03.403Z,36.30
2017-10-06T15:39:30.898Z,34.70
2017-10-06T15:41:58.370Z,32.80
2017-10-06T15:44:25.843Z,32.60
2017-10-06T15:46:53.333Z,33.30
2017-10-06T15:49:20.854Z,34.40
2017-10-06T15:51:48.323Z,35.40
2017-10-06T15:54:15.791Z,36.80
2017-10-06T15:56:43.271Z,37.70
2017-10-06T15:59:10.752Z,38.60
2017-10-06T16:01:38.216Z,39.00
2017-10-06T16:04:05.703Z,39.50
2017-10-06T16:06:33.167Z,40.00
2017-10-06T16:09:00.667Z,40.10
2017-10-06T16:11:28.118Z,40.70
2017-10-06T16:13:55.578Z,41.60
2017-10-06T16:16:23.072Z,42.00
2017-10-06T16:18:50.576Z,42.30
2017-10-06T16:21:18.034Z,42.90
2017-10-06T16:23:45.557Z,43.80
2017-10-06T16:26:13.047Z,43.90
2017-10-06T16:28:40.581Z,44.20
2017-10-06T16:31:08.113Z,44.50
2017-10-06T16:33:36.334Z,45.20
2017-10-06T16:36:03.850Z,45.20
2017-10-06T16:38:31.330Z,45.30
2017-10-06T16:40:58.863Z,45.90
2017-10-06T16:43:27.123Z,46.60
2017-10-06T16:45:54.588Z,46.60
2017-10-06T16:48:22.827Z,47.70
2017-10-06T16:50:51.329Z,48.00
2017-10-06T16:53:19.050Z,48.00
2017-10-06T16:55:47.297Z,48.40
2017-10-06T16:58:15.088Z,48.50
2017-10-06T17:00:42.769Z,48.70
2017-10-06T17:03:10.523Z,49.10
2017-10-06T17:05:38.259Z,49.40
2017-10-06T17:08:05.795Z,50.20
2017-10-06T17:10:34.054Z,50.30
2017-10-06T17:13:01.935Z,50.30
2017-10-06T17:15:30.526Z,50.60
2017-10-06T17:17:59.708Z,51.30
2017-10-06T17:20:27.268Z,51.30
2017-10-06T17:22:54.818Z,51.60
2017-10-06T17:25:23.101Z,52.20
2017-10-06T17:27:50.734Z,52.20
2017-10-06T17:30:18.286Z,52.60
2017-10-06T17:32:45.773Z,52.80
2017-10-06T17:35:14.011Z,53.20
2017-10-06T17:37:41.739Z,53.50
2017-10-06T17:40:09.479Z,53.70
2017-10-06T17:42:38.012Z,54.00
2017-10-06T17:45:06.384Z,54.10
2017-10-06T17:47:34.290Z,54.10
2017-10-06T17:50:02.094Z,54.20
2017-10-06T17:52:29.906Z,54.20
2017-10-06T17:54:58.418Z,54.60
2017-10-06T17:57:26.964Z,54.70
2017-10-06T17:59:54.654Z,54.60
2017-10-06T18:02:22.588Z,54.70
2017-10-06T18:04:50.936Z,54.90
2017-10-06T18:07:18.784Z,55.00
2017-10-06T18:09:46.287Z,55.20
2017-10-06T18:12:14.505Z,55.40
2017-10-06T18:14:41.997Z,55.40
2017-10-06T18:17:09.519Z,55.60
2017-10-06T18:19:37.319Z,55.80
2017-10-06T18:22:05.570Z,56.00
2017-10-06T18:24:33.171Z,56.00
2017-10-06T18:27:00.674Z,56.10
2017-10-06T18:29:28.437Z,56.40
2017-10-06T18:31:56.038Z,56.50
2017-10-06T18:34:23.509Z,56.70
2017-10-06T18:36:50.978Z,56.80
2017-10-06T18:39:19.238Z,57.10
2017-10-06T18:41:46.901Z,57.20
2017-10-06T18:44:14.574Z,57.30
2017-10-06T18:46:42.235Z,57.70
2017-10-06T18:49:09.739Z,57.90
2017-10-06T18:51:37.286Z,58.00
2017-10-06T18:54:05.050Z,58.00
2017-10-06T18:56:32.513Z,58.00
2017-10-06T18:59:00.976Z,58.10
2017-10-06T19:01:28.564Z,58.20
2017-10-06T19:03:56.274Z,58.20
2017-10-06T19:06:23.984Z,58.30
2017-10-06T19:08:51.522Z,58.30
2017-10-06T19:11:18.992Z,58.40
2017-10-06T19:13:47.394Z,58.60
2017-10-06T19:16:14.908Z,58.60
2017-10-06T19:18:43.275Z,59.40
2017-10-06T19:21:10.761Z,58.80
2017-10-06T19:23:38.222Z,58.70
2017-10-06T19:26:05.857Z,58.70
2017-10-06T19:28:33.326Z,58.70
2017-10-06T19:31:01.874Z,58.80
2017-10-06T19:33:29.386Z,58.80
2017-10-06T19:35:56.863Z,58.70
2017-10-06T19:38:24.355Z,58.70
2017-10-06T19:40:51.847Z,58.80
2017-10-06T19:43:19.303Z,58.80
2017-10-06T19:45:47.543Z,59.10
2017-10-06T19:48:15.030Z,59.10
2017-10-06T19:50:42.499Z,59.90
2017-10-06T19:53:09.961Z,59.40
2017-10-06T19:55:37.442Z,59.40
2017-10-06T19:58:04.914Z,59.50
2017-10-06T20:00:32.419Z,59.60
2017-10-06T20:02:59.919Z,59.50
2017-10-06T20:05:27.378Z,59.60
2017-10-06T20:07:54.902Z,59.60
2017-10-06T20:10:22.404Z,59.70
2017-10-06T20:12:49.860Z,59.90
2017-10-06T20:15:17.332Z,59.90
2017-10-06T20:17:44.946Z,60.00
2017-10-06T20:20:12.414Z,60.10
2017-10-06T20:22:39.871Z,60.20
2017-10-06T20:25:07.442Z,60.30
2017-10-06T20:27:34.910Z,60.30
2017-10-06T20:30:02.395Z,60.40
2017-10-06T20:32:29.879Z,60.40
2017-10-06T20:34:58.231Z,60.50
2017-10-06T20:37:25.704Z,60.50
2017-10-06T20:39:53.194Z,60.50
2017-10-06T20:42:21.458Z,60.80
2017-10-06T20:44:48.922Z,61.50
2017-10-06T20:47:16.383Z,60.80
2017-10-06T20:49:44.635Z,60.70
2017-10-06T20:52:12.868Z,60.70
2017-10-06T20:54:40.350Z,60.70
2017-10-06T20:57:07.841Z,60.80
2017-10-06T20:59:35.306Z,60.90
2017-10-06T21:02:02.883Z,61.10
2017-10-06T21:04:31.134Z,61.20
2017-10-06T21:06:58.593Z,61.00
2017-10-06T21:09:26.176Z,61.00
2017-10-06T21:11:54.422Z,61.00
2017-10-06T21:14:21.912Z,60.90
2017-10-06T21:16:50.135Z,61.00
2017-10-06T21:19:17.603Z,61.00
2017-10-06T21:21:45.078Z,61.10
2017-10-06T21:24:12.565Z,61.20
2017-10-06T21:26:40.811Z,61.30
2017-10-06T21:29:08.278Z,61.30
2017-10-06T21:31:35.770Z,61.30
2017-10-06T21:34:03.520Z,61.30
2017-10-06T21:36:30.982Z,61.30
2017-10-06T21:38:59.238Z,61.60
2017-10-06T21:41:26.700Z,61.60
2017-10-06T21:43:54.169Z,61.80
2017-10-06T21:46:21.663Z,61.90
2017-10-06T21:48:49.133Z,61.70
2017-10-06T21:51:16.590Z,61.70
2017-10-06T21:53:44.071Z,61.50
2017-10-06T21:56:11.534Z,61.40
2017-10-06T21:58:39.027Z,61.50
2017-10-06T22:01:07.268Z,61.80
2017-10-06T22:03:34.727Z,61.70
2017-10-06T22:06:02.991Z,61.90
2017-10-06T22:08:30.517Z,61.80
2017-10-06T22:10:57.994Z,62.00
2017-10-06T22:13:25.458Z,62.20
2017-10-06T22:15:52.950Z,62.40
2017-10-06T22:18:20.407Z,62.50
2017-10-06T22:20:47.875Z,62.60
2017-10-06T22:23:16.134Z,62.90
2017-10-06T22:25:43.624Z,62.90
2017-10-06T22:28:11.102Z,63.00
2017-10-06T22:30:38.662Z,63.10
2017-10-06T22:33:06.122Z,63.20
2017-10-06T22:35:33.623Z,64.00
2017-10-06T22:38:01.073Z,63.30
2017-10-06T22:40:28.530Z,63.40
2017-10-06T22:42:56.009Z,63.60
2017-10-06T22:45:23.461Z,63.50
2017-10-06T22:47:50.959Z,63.60
2017-10-06T22:50:18.449Z,63.70
2017-10-06T22:52:45.903Z,63.70
2017-10-06T22:55:13.374Z,63.70
2017-10-06T22:57:40.853Z,63.80
2017-10-06T23:00:08.314Z,63.80
2017-10-06T23:02:35.806Z,63.70
2017-10-06T23:05:03.287Z,63.60
2017-10-06T23:07:30.748Z,63.50
2017-10-06T23:09:58.296Z,63.60
2017-10-06T23:12:25.769Z,63.50
2017-10-06T23:14:53.243Z,63.50
2017-10-06T23:17:20.728Z,63.40
2017-10-06T23:19:48.964Z,62.70
2017-10-06T23:22:17.225Z,63.30
2017-10-06T23:24:44.686Z,63.30
2017-10-06T23:27:12.149Z,63.10
2017-10-06T23:29:40.093Z,63.20
2017-10-06T23:32:07.544Z,63.20
2017-10-06T23:34:36.736Z,63.20
2017-10-06T23:37:04.223Z,63.20
2017-10-06T23:39:31.702Z,63.30
2017-10-06T23:41:59.159Z,63.50
2017-10-06T23:44:26.653Z,63.60
2017-10-06T23:46:54.109Z,63.80
2017-10-06T23:49:21.562Z,63.80
2017-10-06T23:51:49.049Z,63.90
2017-10-06T23:54:17.297Z,64.00
2017-10-06T23:56:44.750Z,63.90
2017-10-06T23:59:12.246Z,63.90
